Time;durP1;ratioP1;P1;durP2;ratioP2;P2;SDS_P1;SDS_P2;PMS_P1;PMS_P2;Temp;Humidity;BMP_temperature;BMP_pressure;BME280_temperature;BME280_humidity;BME280_pressure;Samples;Min_cycle;Max_cycle;Signal;HPM_P1;HPM_P2
2022/09/08 00:00:38;;;;;;;1.55;0.63;;;;;;;13.30;100.00;99296.72;5020793;28;20128;-75
2022/09/08 00:03:06;;;;;;;1.55;0.60;;;;;;;13.27;100.00;99298.16;5005119;28;20053;-74
2022/09/08 00:05:36;;;;;;;4.93;1.00;;;;;;;13.24;100.00;99288.63;5009818;28;20053;-75
2022/09/08 00:08:02;;;;;;;2.40;0.90;;;;;;;13.22;100.00;99290.06;5013533;28;20029;-75
2022/09/08 00:10:30;;;;;;;4.30;1.10;;;;;;;13.18;100.00;99280.81;5013971;28;20034;-75
2022/09/08 00:12:55;;;;;;;4.57;0.95;;;;;;;13.19;100.00;99286.00;5013126;28;20026;-75
2022/09/08 00:15:21;;;;;;;5.35;0.80;;;;;;;13.22;100.00;99284.56;4993816;28;20546;-74
2022/09/08 00:17:47;;;;;;;4.72;1.02;;;;;;;13.20;100.00;99281.31;5006684;28;20044;-74
2022/09/08 00:20:13;;;;;;;4.18;1.33;;;;;;;13.21;100.00;99291.16;5013501;28;20080;-74
2022/09/08 00:22:39;;;;;;;2.75;0.70;;;;;;;13.17;100.00;99279.19;5015599;28;20031;-74
2022/09/08 00:25:05;;;;;;;2.67;0.50;;;;;;;13.16;100.00;99280.31;5003545;28;20495;-75
2022/09/08 00:27:30;;;;;;;3.78;1.20;;;;;;;13.17;100.00;99276.44;5013301;28;20094;-74
2022/09/08 00:29:56;;;;;;;3.75;1.02;;;;;;;13.14;100.00;99266.91;5004447;28;20039;-75
2022/09/08 00:32:22;;;;;;;4.10;1.50;;;;;;;13.20;100.00;99273.91;5002252;28;20760;-75
2022/09/08 00:34:47;;;;;;;3.40;0.98;;;;;;;13.20;100.00;99273.06;4998852;28;20520;-74
2022/09/08 00:37:14;;;;;;;2.13;0.90;;;;;;;13.16;100.00;99263.84;5000306;28;20034;-75
2022/09/08 00:39:40;;;;;;;0.90;0.50;;;;;;;13.12;100.00;99262.84;5005147;28;20029;-75
2022/09/08 00:42:06;;;;;;;1.40;0.70;;;;;;;13.12;100.00;99257.34;5005327;28;20037;-78
2022/09/08 00:44:36;;;;;;;3.95;1.00;;;;;;;13.14;100.00;99260.59;4999827;28;20057;-76
2022/09/08 00:47:04;;;;;;;1.52;0.70;;;;;;;13.10;100.00;99258.47;5012386;28;20059;-75
2022/09/08 00:49:32;;;;;;;1.63;0.80;;;;;;;13.06;100.00;99251.97;5003495;28;20061;-74
2022/09/08 00:51:58;;;;;;;2.25;0.80;;;;;;;13.05;100.00;99242.16;5010184;28;20480;-75
2022/09/08 00:54:25;;;;;;;1.40;0.60;;;;;;;13.05;100.00;99236.66;4974984;28;20023;-75
2022/09/08 00:56:54;;;;;;;2.25;0.90;;;;;;;13.01;100.00;99230.16;5011851;28;20464;-75
2022/09/08 00:59:22;;;;;;;3.40;0.63;;;;;;;13.07;100.00;99228.91;5004152;28;20026;-75
2022/09/08 01:01:48;;;;;;;3.92;1.05;;;;;;;13.09;100.00;99218.41;4992485;28;20030;-74
2022/09/08 01:04:13;;;;;;;2.40;0.80;;;;;;;13.05;100.00;99216.63;4999904;28;20428;-75
2022/09/08 01:12:54;;;;;;;3.65;0.93;;;;;;;13.04;100.00;99235.03;5003027;28;20430;-76
2022/09/08 01:15:27;;;;;;;1.80;0.50;;;;;;;13.04;100.00;99229.53;5014441;28;20044;-75
2022/09/08 01:17:54;;;;;;;1.80;0.60;;;;;;;13.05;100.00;99239.41;5012300;28;20046;-77
2022/09/08 01:20:34;;;;;;;1.95;0.82;;;;;;;13.02;100.00;99237.25;4996734;28;20026;-76
2022/09/08 01:23:32;;;;;;;0.60;0.60;;;;;;;13.01;100.00;99249.38;5008211;28;20026;-75
2022/09/08 01:26:12;;;;;;;3.45;1.02;;;;;;;12.97;100.00;99239.34;5003386;28;20113;-75
2022/09/08 01:28:47;;;;;;;2.58;0.80;;;;;;;12.96;100.00;99235.75;5009105;28;20109;-75
2022/09/08 01:31:22;;;;;;;1.17;0.60;;;;;;;12.96;100.00;99235.75;5009505;28;20115;-74
2022/09/08 01:33:47;;;;;;;2.28;0.60;;;;;;;12.97;100.00;99223.66;4979582;28;20052;-75
2022/09/08 01:36:15;;;;;;;2.58;0.90;;;;;;;12.93;100.00;99217.97;5008171;28;20480;-75
2022/09/08 01:38:41;;;;;;;1.35;0.65;;;;;;;12.97;100.00;99229.16;5008329;28;20034;-74
2022/09/08 01:41:07;;;;;;;1.30;0.50;;;;;;;12.94;100.00;99229.78;5008738;28;20135;-75
2022/09/08 01:43:33;;;;;;;3.63;0.40;;;;;;;12.92;100.00;99232.84;4996011;28;20042;-76
2022/09/08 01:45:58;;;;;;;0.80;0.50;;;;;;;12.90;100.00;99226.84;5008565;28;20068;-76
2022/09/08 01:48:25;;;;;;;0.63;0.35;;;;;;;12.87;100.00;99223.91;5002478;28;20058;-76
2022/09/08 01:50:51;;;;;;;1.65;0.70;;;;;;;12.88;100.00;99231.03;4980403;28;20990;-75
2022/09/08 01:53:19;;;;;;;2.85;0.50;;;;;;;12.86;100.00;99222.28;5003738;28;20147;-75
2022/09/08 01:55:45;;;;;;;1.13;0.57;;;;;;;12.91;100.00;99219.44;4999489;28;20041;-74
2022/09/08 01:58:10;;;;;;;1.75;0.73;;;;;;;12.88;100.00;99206.34;4976890;28;20042;-75
2022/09/08 02:00:40;;;;;;;2.20;0.80;;;;;;;12.94;100.00;99218.81;4964341;28;20038;-74
2022/09/08 02:03:05;;;;;;;3.25;0.43;;;;;;;12.96;100.00;99216.56;5009228;28;20026;-75
2022/09/08 02:05:31;;;;;;;2.53;0.60;;;;;;;12.96;100.00;99208.31;5009331;28;20041;-76
2022/09/08 02:07:56;;;;;;;1.45;0.50;;;;;;;13.03;100.00;99211.44;4970285;28;20034;-75
2022/09/08 02:10:22;;;;;;;7.70;1.35;;;;;;;13.15;100.00;99213.63;4993655;28;20058;-75
2022/09/08 02:12:47;;;;;;;7.10;1.23;;;;;;;13.28;100.00;99209.19;4995412;28;20096;-74
2022/09/08 02:15:13;;;;;;;1.92;0.80;;;;;;;13.35;100.00;99195.06;4978920;28;20034;-74
2022/09/08 02:17:38;;;;;;;1.73;0.70;;;;;;;13.41;100.00;99194.59;4998168;28;20041;-75
2022/09/08 02:20:04;;;;;;;1.92;0.85;;;;;;;13.52;100.00;99205.31;4992071;28;20128;-75
2022/09/08 02:22:32;;;;;;;1.77;0.70;;;;;;;13.59;100.00;99208.41;4990326;28;20155;-75
2022/09/08 02:24:57;;;;;;;1.73;0.70;;;;;;;13.64;100.00;99208.28;4992944;28;20030;-74
2022/09/08 02:27:23;;;;;;;5.13;1.33;;;;;;;13.76;100.00;99200.25;5013709;28;20076;-75
2022/09/08 02:29:49;;;;;;;10.23;1.67;;;;;;;13.79;100.00;99205.09;4997910;28;20026;-75
2022/09/08 02:32:14;;;;;;;10.43;2.28;;;;;;;13.79;100.00;99202.34;5013562;28;20930;-75
2022/09/08 02:34:40;;;;;;;11.88;1.20;;;;;;;13.82;100.00;99195.44;4981905;28;20035;-76
2022/09/08 02:37:05;;;;;;;9.18;1.58;;;;;;;13.80;100.00;99186.69;4998669;28;20045;-75
2022/09/08 02:39:30;;;;;;;4.20;0.88;;;;;;;13.82;100.00;99187.19;4980871;28;20030;-74
2022/09/08 02:41:56;;;;;;;6.18;1.17;;;;;;;13.74;100.00;99172.28;4979894;28;20026;-76
2022/09/08 02:44:21;;;;;;;2.60;0.63;;;;;;;13.83;100.00;99177.81;4988972;28;20073;-76
2022/09/08 02:46:47;;;;;;;0.93;0.50;;;;;;;13.89;100.00;99186.72;4984583;28;20049;-77
2022/09/08 02:49:13;;;;;;;3.78;0.82;;;;;;;13.92;100.00;99177.84;5020047;28;20054;-77
2022/09/08 02:51:39;;;;;;;2.40;1.05;;;;;;;13.89;100.00;99178.50;5003241;28;20033;-77
2022/09/08 02:54:04;;;;;;;2.15;0.60;;;;;;;13.93;100.00;99182.19;5015683;28;20026;-78
2022/09/08 02:56:30;;;;;;;2.70;0.90;;;;;;;13.90;100.00;99189.16;5009450;28;20487;-77
2022/09/08 02:58:55;;;;;;;2.70;0.70;;;;;;;13.91;100.00;99173.47;4993244;28;20029;-77
2022/09/08 03:01:21;;;;;;;1.08;0.43;;;;;;;13.98;100.00;99184.81;5000094;28;20026;-77
2022/09/08 03:03:47;;;;;;;1.02;0.55;;;;;;;14.01;100.00;99173.16;5006264;28;20060;-77
2022/09/08 03:06:14;;;;;;;1.65;0.70;;;;;;;14.07;100.00;99177.38;5010848;28;20464;-78
2022/09/08 03:08:39;;;;;;;3.17;1.02;;;;;;;14.09;100.00;99177.06;5013290;28;20030;-77
2022/09/08 03:11:05;;;;;;;6.75;1.38;;;;;;;14.09;100.00;99175.16;5000553;28;20027;-76
2022/09/08 03:13:30;;;;;;;2.55;0.63;;;;;;;14.10;100.00;99182.25;4989226;28;20034;-76
2022/09/08 03:15:57;;;;;;;6.68;1.35;;;;;;;14.13;100.00;99180.78;5005890;28;20018;-77
2022/09/08 03:18:24;;;;;;;6.38;1.45;;;;;;;14.08;100.00;99173.50;5008059;28;20026;-76
2022/09/08 03:20:59;;;;;;;5.82;1.00;;;;;;;14.10;100.00;99178.69;5008199;28;20033;-76
2022/09/08 03:23:25;;;;;;;6.82;1.25;;;;;;;14.05;100.00;99168.66;5009219;28;20027;-76
2022/09/08 03:25:50;;;;;;;3.05;1.20;;;;;;;14.10;100.00;99170.44;4993792;28;20020;-76
2022/09/08 03:28:24;;;;;;;4.10;1.30;;;;;;;14.08;100.00;99173.50;5008940;28;20097;-76
2022/09/08 03:30:50;;;;;;;6.30;1.40;;;;;;;14.07;100.00;99171.88;5009329;28;20036;-76
2022/09/08 03:33:15;;;;;;;0.90;0.57;;;;;;;14.07;100.00;99177.38;4996101;28;20268;-76
2022/09/08 03:35:41;;;;;;;3.95;0.70;;;;;;;14.02;100.00;99174.81;4996405;28;20030;-75
2022/09/08 03:38:07;;;;;;;3.65;0.82;;;;;;;14.04;100.00;99178.03;5011986;28;20113;-76
2022/09/08 03:40:34;;;;;;;2.95;0.82;;;;;;;14.11;100.00;99183.88;5013419;28;20037;-77
2022/09/08 03:43:00;;;;;;;3.05;0.90;;;;;;;14.17;100.00;99187.28;5010800;28;20029;-76
2022/09/08 03:45:26;;;;;;;2.08;0.80;;;;;;;14.13;100.00;99172.53;5019236;28;20010;-76
2022/09/08 03:47:52;;;;;;;5.13;1.08;;;;;;;14.11;100.00;99172.06;5009279;28;20084;-76
2022/09/08 03:50:19;;;;;;;2.30;0.68;;;;;;;13.99;100.00;99174.63;5006506;28;20608;-74
2022/09/08 03:52:44;;;;;;;1.45;0.40;;;;;;;13.93;100.00;99179.44;4983752;28;20040;-77
2022/09/08 03:55:10;;;;;;;1.65;0.77;;;;;;;13.84;100.00;99181.38;4987094;28;20030;-76
2022/09/08 03:57:37;;;;;;;3.83;0.75;;;;;;;13.84;100.00;99178.63;5003047;28;20034;-75
2022/09/08 04:00:05;;;;;;;8.30;1.08;;;;;;;13.84;100.00;99176.66;4972528;28;20027;-75
2022/09/08 04:02:32;;;;;;;4.75;1.17;;;;;;;13.77;100.00;99168.91;4986092;28;20045;-76
2022/09/08 04:04:58;;;;;;;5.57;1.00;;;;;;;13.71;100.00;99164.69;4963615;28;20032;-75
2022/09/08 04:07:27;;;;;;;3.22;1.17;;;;;;;13.66;100.00;99172.25;5003024;28;20027;-76
2022/09/08 04:09:53;;;;;;;7.45;1.08;;;;;;;13.58;100.00;99168.31;4999411;28;20029;-76
2022/09/08 04:12:19;;;;;;;3.58;0.60;;;;;;;13.47;100.00;99159.56;4987329;28;20018;-76
2022/09/08 04:14:48;;;;;;;0.95;0.57;;;;;;;13.46;100.00;99166.19;5005751;28;20052;-75
2022/09/08 04:17:14;;;;;;;2.70;1.30;;;;;;;13.39;100.00;99158.41;4986042;28;20026;-77
2022/09/08 04:19:39;;;;;;;1.45;0.50;;;;;;;13.32;100.00;99160.75;4987956;28;20422;-77
2022/09/08 04:22:06;;;;;;;3.45;0.77;;;;;;;13.30;100.00;99159.44;4995985;28;20067;-75
2022/09/08 04:24:32;;;;;;;4.38;1.02;;;;;;;13.29;100.00;99166.88;4965340;28;20033;-77
2022/09/08 04:26:57;;;;;;;9.57;1.58;;;;;;;13.32;100.00;99163.50;4977426;28;20030;-77
2022/09/08 04:29:23;;;;;;;4.97;1.25;;;;;;;13.37;100.00;99165.34;4983763;28;20106;-76
2022/09/08 04:31:49;;;;;;;3.30;0.88;;;;;;;13.34;100.00;99158.53;4994298;28;20479;-77
2022/09/08 04:34:15;;;;;;;4.53;0.93;;;;;;;13.34;100.00;99166.78;5015770;28;20037;-78
2022/09/08 04:36:41;;;;;;;4.40;1.30;;;;;;;13.39;100.00;99165.81;4973984;28;20030;-75
2022/09/08 04:39:07;;;;;;;4.93;1.10;;;;;;;13.51;100.00;99174.28;4979756;28;20058;-77
2022/09/08 04:41:33;;;;;;;3.58;1.40;;;;;;;13.62;100.00;99172.06;4992796;28;20453;-78
2022/09/08 04:44:03;;;;;;;3.58;0.75;;;;;;;13.59;100.00;99172.69;4983780;28;20030;-76
2022/09/08 04:46:31;;;;;;;3.90;0.85;;;;;;;13.52;100.00;99161.34;4975663;28;20041;-77
2022/09/08 04:48:56;;;;;;;6.68;0.98;;;;;;;13.48;100.00;99163.13;4965015;28;1173596;-76
2022/09/08 04:51:23;;;;;;;2.92;0.90;;;;;;;13.43;100.00;99158.56;5017955;28;20030;-77
2022/09/08 04:53:52;;;;;;;2.33;1.08;;;;;;;13.46;100.00;99162.63;5009571;28;20026;-76
2022/09/08 04:56:18;;;;;;;5.35;1.02;;;;;;;13.47;100.00;99153.28;5013078;28;20042;-77
2022/09/08 04:58:45;;;;;;;5.50;1.20;;;;;;;13.43;100.00;99148.41;5004490;28;20109;-77
2022/09/08 05:01:21;;;;;;;2.60;0.70;;;;;;;13.46;100.00;99159.88;5017042;28;20037;-76
2022/09/08 05:03:51;;;;;;;3.28;0.98;;;;;;;13.44;100.00;99161.00;5005120;28;20022;-78
2022/09/08 05:06:17;;;;;;;5.65;1.50;;;;;;;13.48;100.00;99160.38;5007763;28;20284;-77
2022/09/08 05:08:48;;;;;;;5.32;1.33;;;;;;;13.49;100.00;99153.75;5011183;28;20456;-79
2022/09/08 05:11:15;;;;;;;3.50;0.93;;;;;;;13.65;100.00;99165.94;5016575;28;20029;-77
2022/09/08 05:13:41;;;;;;;3.05;0.85;;;;;;;13.66;100.00;99151.09;5012263;28;20026;-77
2022/09/08 05:16:09;;;;;;;7.00;1.50;;;;;;;13.54;100.00;99159.13;5021166;28;20097;-77
2022/09/08 05:18:35;;;;;;;4.47;1.45;;;;;;;13.47;100.00;99147.78;5010106;28;20078;-77
2022/09/08 05:21:01;;;;;;;3.42;0.88;;;;;;;13.41;100.00;99153.41;5003921;28;20030;-75
2022/09/08 05:23:27;;;;;;;4.32;1.25;;;;;;;13.42;100.00;99141.31;5013239;28;20457;-76
2022/09/08 05:26:06;;;;;;;3.95;1.35;;;;;;;13.53;100.00;99154.75;5009845;28;20021;-77
2022/09/08 05:28:34;;;;;;;6.03;1.23;;;;;;;13.51;100.00;99154.28;5011511;28;20242;-76
2022/09/08 05:31:00;;;;;;;8.90;1.85;;;;;;;13.59;100.00;99156.22;5006535;28;20128;-77
2022/09/08 05:33:26;;;;;;;9.10;1.65;;;;;;;13.58;100.00;99160.09;5014822;28;20118;-77
2022/09/08 05:35:52;;;;;;;4.35;1.27;;;;;;;13.63;100.00;99162.72;5013266;28;20137;-78
2022/09/08 05:38:19;;;;;;;7.40;1.73;;;;;;;13.65;100.00;99149.47;5001649;28;20031;-76
2022/09/08 05:40:44;;;;;;;11.35;2.20;;;;;;;13.74;100.00;99158.56;4984322;28;20025;-77
2022/09/08 05:43:10;;;;;;;11.73;1.83;;;;;;;13.65;100.00;99149.47;5005644;28;20026;-77
2022/09/08 05:45:36;;;;;;;4.95;1.75;;;;;;;13.55;100.00;99145.06;5011958;28;20105;-77
2022/09/08 05:48:02;;;;;;;10.52;2.13;;;;;;;13.53;100.00;99157.50;4991220;28;20050;-77
2022/09/08 05:50:27;;;;;;;12.00;2.03;;;;;;;13.47;100.00;99142.28;5005840;28;20044;-78
2022/09/08 05:52:53;;;;;;;5.65;1.48;;;;;;;13.41;100.00;99145.16;4992399;28;20093;-77
2022/09/08 05:55:18;;;;;;;11.10;1.38;;;;;;;13.34;100.00;99144.81;4983096;28;20030;-78
2022/09/08 05:57:44;;;;;;;8.40;1.67;;;;;;;13.33;100.00;99145.94;4987555;28;20083;-76
2022/09/08 06:00:10;;;;;;;6.50;1.95;;;;;;;13.35;100.00;99145.63;4989722;28;20034;-76
2022/09/08 06:02:37;;;;;;;12.73;2.08;;;;;;;13.40;100.00;99154.56;4994334;28;20042;-79
2022/09/08 06:05:02;;;;;;;5.72;1.25;;;;;;;13.42;100.00;99152.28;5009992;28;20026;-72
2022/09/08 06:07:34;;;;;;;3.58;1.50;;;;;;;13.43;100.00;99148.41;4976702;28;20428;-77
2022/09/08 06:09:59;;;;;;;16.60;2.83;;;;;;;13.37;100.00;99126.91;4997955;28;20058;-77
2022/09/08 06:12:27;;;;;;;10.60;2.03;;;;;;;13.51;100.00;99143.28;4974539;28;20038;-78
2022/09/08 06:14:53;;;;;;;4.97;1.30;;;;;;;13.51;100.00;99143.28;4997768;28;20113;-76
2022/09/08 06:17:18;;;;;;;4.88;1.40;;;;;;;13.54;100.00;99137.16;4987070;28;20565;-76
2022/09/08 06:19:44;;;;;;;9.43;1.88;;;;;;;13.61;100.00;99145.75;4984568;28;20093;-76
2022/09/08 06:22:09;;;;;;;9.32;1.60;;;;;;;13.72;100.00;99140.75;4990413;28;20026;-77
2022/09/08 06:24:35;;;;;;;8.52;1.73;;;;;;;13.89;100.00;99145.50;5005838;28;20079;-75
2022/09/08 06:27:31;;;;;;;7.07;1.85;;;;;;;14.02;100.00;99147.31;4982604;28;20034;-78
2022/09/08 06:30:11;;;;;;;7.47;2.17;;;;;;;14.16;100.00;99146.38;4988909;28;20101;-78
2022/09/08 06:32:49;;;;;;;7.38;1.92;;;;;;;14.14;100.00;99132.94;4996293;28;20156;-77
2022/09/08 06:35:26;;;;;;;7.53;2.20;;;;;;;14.11;100.00;99122.59;5000183;28;20027;-81
2022/09/08 06:38:07;;;;;;;8.45;2.33;;;;;;;14.31;100.00;99140.41;5011732;28;20052;-72
2022/09/08 06:40:37;;;;;;;9.80;2.28;;;;;;;14.40;100.00;99140.41;4985031;28;20128;-74
2022/09/08 06:43:20;;;;;;;3.67;1.40;;;;;;;14.53;100.00;99144.13;4992383;28;20022;-74
2022/09/08 06:45:50;;;;;;;8.80;2.30;;;;;;;14.57;100.00;99142.34;4991808;28;20037;-72
2022/09/08 06:48:22;;;;;;;5.88;1.60;;;;;;;14.70;100.00;99137.84;4973336;28;20129;-73
2022/09/08 06:51:15;;;;;;;3.22;1.15;;;;;;;14.86;100.00;99135.41;5008199;28;20065;-72
2022/09/08 06:54:17;;;;;;;1.88;1.10;;;;;;;14.91;100.00;99132.47;5007182;28;20045;-74
2022/09/08 06:56:51;;;;;;;4.93;1.52;;;;;;;15.06;100.00;99145.72;5000098;28;20050;-73
2022/09/08 06:59:49;;;;;;;6.78;1.85;;;;;;;15.08;100.00;99146.19;5007473;28;20041;-74
2022/09/08 07:02:45;;;;;;;5.78;2.00;;;;;;;15.14;100.00;99144.91;5013184;28;20021;-75
2022/09/08 07:05:32;;;;;;;6.00;1.70;;;;;;;15.33;100.00;99143.69;5011039;28;20026;-73
2022/09/08 07:08:20;;;;;;;6.95;2.30;;;;;;;15.62;100.00;99139.38;5005330;28;20245;-72
2022/09/08 07:10:54;;;;;;;5.63;1.75;;;;;;;15.87;100.00;99141.25;4975473;28;20048;-73
2022/09/08 07:13:40;;;;;;;13.87;2.23;;;;;;;16.31;100.00;99143.72;5003398;28;20112;-73
2022/09/08 07:16:09;;;;;;;6.68;1.77;;;;;;;16.70;100.00;99146.31;4998056;28;20061;-73
2022/09/08 07:18:48;;;;;;;7.63;1.88;;;;;;;17.15;100.00;99145.59;5007936;28;20538;-74
2022/09/08 07:21:29;;;;;;;14.30;2.42;;;;;;;17.59;100.00;99143.13;4995167;28;20045;-74
2022/09/08 07:23:59;;;;;;;11.68;1.70;;;;;;;17.90;100.00;99144.56;4999225;28;20048;-74
2022/09/08 07:26:29;;;;;;;10.60;1.67;;;;;;;18.01;100.00;99147.66;4996516;28;20454;-74
2022/09/08 07:29:03;;;;;;;7.57;1.98;;;;;;;17.84;100.00;99140.34;5011967;28;20024;-73
2022/09/08 07:31:31;;;;;;;20.85;2.70;;;;;;;17.80;100.00;99143.03;5007561;28;20030;-73
2022/09/08 07:34:06;;;;;;;11.75;2.00;;;;;;;17.32;100.00;99146.53;4979376;28;20026;-73
2022/09/08 07:37:04;;;;;;;6.35;1.63;;;;;;;16.63;100.00;99137.78;5003861;28;20057;-74
2022/09/08 07:39:46;;;;;;;13.80;2.33;;;;;;;15.97;100.00;99136.47;5003481;28;20030;-73
2022/09/08 07:42:14;;;;;;;7.70;2.15;;;;;;;15.63;100.00;99147.31;4996251;28;20022;-74
2022/09/08 07:44:41;;;;;;;10.95;2.28;;;;;;;15.54;100.00;99144.59;4994208;28;20443;-74
2022/09/08 07:47:38;;;;;;;12.80;2.38;;;;;;;15.43;100.00;99135.06;5012217;28;20084;-73
2022/09/08 07:50:22;;;;;;;14.80;2.80;;;;;;;15.32;100.00;99131.09;5003189;28;20120;-72
2022/09/08 07:53:06;;;;;;;20.40;2.58;;;;;;;15.26;100.00;99137.88;5005659;28;20088;-75
2022/09/08 07:55:43;;;;;;;10.23;2.10;;;;;;;15.11;100.00;99137.31;5012189;28;20037;-73
2022/09/08 07:58:27;;;;;;;10.20;1.80;;;;;;;15.01;100.00;99132.16;5009616;28;20960;-73
2022/09/08 08:00:52;;;;;;;;;;;;;;;14.95;100.00;99130.69;5005250;28;20021;-73
2022/09/08 08:03:42;;;;;;;15.48;1.98;;;;;;;14.93;100.00;99127.47;5008099;28;20498;-75
2022/09/08 08:06:17;;;;;;;8.45;1.80;;;;;;;14.97;100.00;99122.91;5003241;28;20049;-74
2022/09/08 08:08:51;;;;;;;;;;;;;;;14.93;100.00;99124.69;5003045;28;20085;-74
2022/09/08 08:11:40;;;;;;;11.65;1.90;;;;;;;14.89;100.00;99116.28;5011360;28;19917;-74
2022/09/08 08:14:27;;;;;;;7.10;1.67;;;;;;;14.91;100.00;99121.44;5006995;28;20059;-73
2022/09/08 08:16:52;;;;;;;11.65;2.10;;;;;;;14.97;100.00;99125.66;5002765;28;20480;-73
2022/09/08 08:19:52;;;;;;;18.02;2.92;;;;;;;15.08;100.00;99121.41;5003481;28;20030;-74
2022/09/08 08:22:20;;;;;;;24.33;3.40;;;;;;;15.30;100.00;99125.06;5008966;28;20017;-73
2022/09/08 08:24:58;;;;;;;10.85;2.13;;;;;;;15.46;100.00;99125.34;5013867;28;20037;-74
2022/09/08 08:27:44;;;;;;;9.73;2.60;;;;;;;15.63;100.00;99116.19;5018089;28;20041;-73
2022/09/08 08:30:15;;;;;;;15.23;2.83;;;;;;;15.87;100.00;99124.69;5009807;28;20026;-73
2022/09/08 08:32:45;;;;;;;15.80;2.70;;;;;;;15.99;100.00;99120.38;5008709;28;20510;-73
2022/09/08 08:35:28;;;;;;;11.13;1.98;;;;;;;16.04;100.00;99115.50;5010500;28;20022;-74
2022/09/08 08:37:54;;;;;;;11.07;2.40;;;;;;;16.10;100.00;99110.59;5016932;28;20041;-74
2022/09/08 08:40:25;;;;;;;21.35;3.30;;;;;;;16.10;100.00;99113.34;5013372;28;20050;-74
2022/09/08 08:43:06;;;;;;;10.40;2.05;;;;;;;16.12;100.00;99115.78;5015260;28;20443;-73
2022/09/08 08:46:10;;;;;;;16.27;2.00;;;;;;;16.19;100.00;99114.13;5011708;28;20026;-74
2022/09/08 08:49:10;;;;;;;13.43;2.35;;;;;;;16.26;100.00;99112.78;5010597;28;20049;-74
2022/09/08 08:52:03;;;;;;;15.15;2.53;;;;;;;16.38;100.00;99118.34;5008948;28;20065;-73
2022/09/08 08:54:56;;;;;;;16.85;2.72;;;;;;;16.39;100.00;99122.72;5011806;28;20030;-73
2022/09/08 08:57:33;;;;;;;14.85;3.08;;;;;;;16.45;100.00;99110.31;5002829;28;20026;-74
2022/09/08 09:00:20;;;;;;;26.55;3.63;;;;;;;16.60;100.00;99119.13;5015202;28;20025;-72
2022/09/08 09:02:57;;;;;;;13.75;2.83;;;;;;;16.83;100.00;99125.09;5016133;28;20057;-74
2022/09/08 09:05:30;;;;;;;21.25;3.75;;;;;;;17.72;100.00;99126.56;5009343;28;20439;-74
2022/09/08 09:08:20;;;;;;;25.13;4.03;;;;;;;20.46;100.00;99123.63;5006583;28;20094;-74
2022/09/08 09:10:54;;;;;;;26.00;3.75;;;;;;;24.87;87.98;99127.91;5002052;28;20033;-74
2022/09/08 09:13:39;;;;;;;13.60;3.63;;;;;;;28.33;72.57;99135.13;5012429;28;20029;-74
2022/09/08 09:16:32;;;;;;;24.85;4.20;;;;;;;30.48;65.88;99140.78;5013142;28;20029;-75
2022/09/08 09:19:07;;;;;;;17.92;3.28;;;;;;;28.56;65.72;99131.59;5009434;28;20034;-74
2022/09/08 09:22:00;;;;;;;13.80;2.42;;;;;;;29.43;68.55;99143.34;5011378;28;20057;-74
2022/09/08 09:25:04;;;;;;;12.75;2.15;;;;;;;29.27;65.59;99128.31;5005293;28;20046;-74
2022/09/08 09:27:41;;;;;;;15.68;3.00;;;;;;;27.36;63.84;99124.72;5003283;28;20058;-76
2022/09/08 09:30:19;;;;;;;15.73;2.47;;;;;;;26.63;67.90;99130.69;5012536;28;20080;-73
2022/09/08 09:33:03;;;;;;;16.25;2.65;;;;;;;24.00;66.92;99132.22;5013104;28;20040;-74
2022/09/08 09:35:47;;;;;;;20.35;4.00;;;;;;;21.83;76.50;99130.91;5012853;28;20049;-73
2022/09/08 09:38:24;;;;;;;12.90;2.58;;;;;;;20.75;82.73;99124.25;5024569;28;20079;-73
2022/09/08 09:41:12;;;;;;;16.58;2.50;;;;;;;20.26;83.09;99119.22;5008348;28;20042;-75
2022/09/08 09:43:56;;;;;;;8.18;1.98;;;;;;;20.57;87.13;99119.09;5007479;28;20547;-75
2022/09/08 09:46:40;;;;;;;22.48;2.70;;;;;;;22.05;78.04;99121.72;5006476;28;20365;-73
2022/09/08 09:49:45;;;;;;;20.40;3.00;;;;;;;20.56;82.17;99125.00;5015219;28;20037;-73
2022/09/08 09:52:29;;;;;;;15.85;2.13;;;;;;;18.85;86.84;99124.00;4980436;28;20030;-73
2022/09/08 09:55:13;;;;;;;12.00;2.42;;;;;;;17.44;93.56;99121.69;5008558;28;20018;-74
2022/09/08 09:58:16;;;;;;;14.32;2.70;;;;;;;16.85;98.22;99136.59;5002428;28;20034;-77
2022/09/08 10:01:25;;;;;;;18.60;2.83;;;;;;;16.93;100.00;99136.53;4988340;28;20500;-78
2022/09/08 10:04:04;;;;;;;18.27;2.88;;;;;;;17.27;100.00;99134.59;4995938;28;20140;-72
2022/09/08 10:06:47;;;;;;;13.25;1.92;;;;;;;19.91;100.00;99126.34;5002341;28;20029;-76
2022/09/08 10:09:51;;;;;;;15.25;2.13;;;;;;;21.73;87.10;99122.03;4982644;28;20034;-74
2022/09/08 10:12:17;;;;;;;9.30;2.15;;;;;;;24.80;70.36;99123.09;4929873;29;20026;-75
2022/09/08 10:15:29;;;;;;;15.45;2.55;;;;;;;24.83;72.67;99119.50;4984760;28;20120;-76
2022/09/08 10:18:21;;;;;;;14.60;2.38;;;;;;;23.26;71.76;99126.44;4928159;29;20071;-75
2022/09/08 10:21:08;;;;;;;15.43;2.70;;;;;;;20.79;77.57;99119.53;4994451;28;20058;-75
2022/09/08 10:24:00;;;;;;;7.40;1.48;;;;;;;19.45;86.42;99114.91;4994978;28;20044;-74
2022/09/08 10:26:48;;;;;;;11.80;1.85;;;;;;;23.39;76.31;99121.34;4984078;28;20034;-75
2022/09/08 10:29:33;;;;;;;8.13;1.77;;;;;;;25.04;66.19;99126.34;4997441;28;20068;-73
2022/09/08 10:32:17;;;;;;;14.27;1.88;;;;;;;24.57;71.33;99126.16;5013247;28;20568;-75
2022/09/08 10:34:52;;;;;;;13.02;2.05;;;;;;;25.26;66.22;99119.59;5015258;28;20050;-74
2022/09/08 10:37:45;;;;;;;22.05;2.53;;;;;;;22.68;69.79;99113.81;5008444;28;20034;-75
2022/09/08 10:40:25;;;;;;;13.57;2.28;;;;;;;19.89;79.70;99120.38;4985316;28;20825;-74
2022/09/08 10:42:53;;;;;;;9.38;2.20;;;;;;;19.01;87.70;99107.44;4985586;28;20033;-75
2022/09/08 10:45:50;;;;;;;11.82;2.33;;;;;;;19.04;88.44;99117.03;4984861;28;20018;-75
2022/09/08 10:48:34;;;;;;;9.10;2.28;;;;;;;19.12;86.16;99116.06;5005438;28;20026;-75
2022/09/08 10:51:36;;;;;;;8.53;1.57;;;;;;;19.01;87.38;99113.81;4983951;28;20026;-75
2022/09/08 10:54:01;;;;;;;16.65;2.20;;;;;;;18.24;89.33;99123.06;4975173;28;20390;-74
2022/09/08 10:56:27;;;;;;;9.27;1.73;;;;;;;17.69;94.94;99118.97;5009387;28;20073;-73
2022/09/08 10:59:11;;;;;;;8.88;1.63;;;;;;;17.60;99.22;99133.69;4991009;28;20032;-74
2022/09/08 11:01:55;;;;;;;10.93;2.13;;;;;;;17.50;98.30;99108.47;4991602;28;20519;-73
2022/09/08 11:04:38;;;;;;;9.32;1.48;;;;;;;17.85;99.60;99124.59;5005695;28;20120;-74
2022/09/08 11:07:29;;;;;;;7.40;1.85;;;;;;;18.27;96.43;99113.28;4988264;28;20030;-73
2022/09/08 11:10:11;;;;;;;14.32;2.30;;;;;;;19.11;97.38;99118.00;5009717;28;20029;-74
2022/09/08 11:13:14;;;;;;;17.35;2.72;;;;;;;22.93;80.04;99110.53;5006877;28;20026;-74
2022/09/08 11:15:58;;;;;;;15.90;2.70;;;;;;;24.53;75.23;99137.34;4994104;28;20056;-74
2022/09/08 11:18:46;;;;;;;19.70;2.45;;;;;;;28.01;62.17;99111.75;4991801;28;20018;-75
2022/09/08 11:21:27;;;;;;;20.75;2.47;;;;;;;27.89;57.82;99134.72;4989253;28;20124;-74
2022/09/08 11:24:02;;;;;;;21.55;3.28;;;;;;;25.63;58.72;99148.44;5004071;28;20018;-74
2022/09/08 11:26:51;;;;;;;10.35;2.22;;;;;;;24.73;63.15;99125.84;4988366;28;20036;-76
2022/09/08 11:29:17;;;;;;;16.83;2.10;;;;;;;24.11;61.46;99129.50;4991562;28;20033;-75
2022/09/08 11:32:21;;;;;;;15.93;2.58;;;;;;;23.35;64.03;99112.16;5010541;28;20037;-74
2022/09/08 11:35:07;;;;;;;13.18;2.28;;;;;;;23.15;61.39;99153.41;4993774;28;20035;-75
2022/09/08 11:37:47;;;;;;;8.73;1.50;;;;;;;22.00;69.93;99138.72;4990095;28;20042;-73
2022/09/08 11:40:38;;;;;;;7.80;1.40;;;;;;;19.47;77.15;99124.47;4996428;28;20030;-76
2022/09/08 11:43:34;;;;;;;11.32;1.58;;;;;;;18.16;85.47;99118.47;5005179;28;20113;-76
2022/09/08 11:46:24;;;;;;;9.07;1.60;;;;;;;17.77;86.72;99126.31;4985757;28;20036;-75
2022/09/08 11:49:11;;;;;;;9.05;1.95;;;;;;;18.02;89.50;99118.03;4997647;28;20045;-76
2022/09/08 11:51:52;;;;;;;18.73;2.53;;;;;;;18.81;88.89;99109.28;5011320;28;20027;-74
2022/09/08 11:54:48;;;;;;;12.55;1.83;;;;;;;19.67;83.53;99119.84;5009360;28;20038;-74
2022/09/08 11:57:31;;;;;;;11.35;1.40;;;;;;;20.38;78.84;99122.66;5006963;28;20033;-76
2022/09/08 12:00:48;;;;;;;10.85;1.70;;;;;;;19.60;78.96;99118.84;5008948;28;20030;-76
2022/09/08 12:03:35;;;;;;;9.13;1.35;;;;;;;18.74;83.34;99111.84;4977495;28;20494;-76